Latest Weather Observations for Gelantipy

IDV60801

Issued at 12:35 am EST Wednesday 30 July 2014 (issued every 30 minutes, with the page automatically refreshed every 10 minutes)

About weather observations | Map of weather stations | Latest weather observations for VIC | Other Formats
Station Details ID: 084142 Name: GELANTIPY Lat: -37.22 Lon: 148.26 Height: 755.0 m
Data from the previous 72 hours. | See also: Recent months at Gelantipy
Date/Time
EST
Temp
°C
App
Temp
°C
Dew
Point
Rel
Hum
%
Delta-T
°C
Wind Press
QNH
hPa
Press
MSL
hPa
Rain
since 9 am
mm
Dir
 
Spd
km/h
Gust
km/h
Spd
kts
Gust
kts
30/12:30am 11.0 6.1 4.9 66 2.9 WNW 20 32 11 17 1010.3 - 0.0
30/12:00am 11.2 5.9 4.9 65 3.0 WNW 22 43 12 23 1010.3 1011.2 0.0
 
Date/Time
EST
Temp
°C
App
Temp
°C
Dew
Point
Rel
Hum
%
Delta-T
°C
Wind Press
QNH
hPa
Press
MSL
hPa
Rain
since 9 am
mm
Dir
 
Spd
km/h
Gust
km/h
Spd
kts
Gust
kts
29/11:30pm 10.9 7.2 4.4 64 3.0 W 13 32 7 17 1009.7 - 0.0
29/11:00pm 10.8 6.7 4.3 64 3.0 W 15 28 8 15 1009.6 1010.6 0.0
29/10:30pm 10.9 2.9 3.9 62 3.2 NNW 35 56 19 30 1009.0 - 0.0
29/10:00pm 10.9 2.5 3.9 62 3.3 NW 37 61 20 33 1009.4 1010.4 0.0
29/09:30pm 10.6 2.6 3.6 62 3.2 NW 35 61 19 33 1009.6 - 0.0
29/09:00pm 10.5 3.4 3.3 61 3.3 NNW 30 57 16 31 1009.8 1010.8 0.0
29/08:30pm 10.4 3.7 3.4 62 3.2 NNW 28 63 15 34 1009.7 - 0.0
29/08:12pm 10.4 3.7 3.7 63 3.1 NNW 28 61 15 33 1010.2 - 0.0
29/08:00pm 10.3 4.0 3.6 63 3.1 NNW 26 46 14 25 1010.3 1011.2 0.0
29/07:34pm 10.8 3.7 3.6 61 3.3 NNW 30 48 16 26 1010.1 - 0.0
29/07:30pm 10.6 3.1 3.4 61 3.3 NNW 32 48 17 26 1010.0 - 0.0
29/07:11pm 11.0 3.9 3.5 60 3.5 N 30 48 16 26 1009.5 - 0.0
29/07:00pm 10.8 6.6 3.8 62 3.2 NW 15 28 8 15 1010.1 1011.0 0.0
29/06:30pm 11.2 5.3 4.0 61 3.4 NNW 24 48 13 26 1009.4 - 0.0
29/06:00pm 11.1 3.1 3.9 61 3.4 NW 35 59 19 32 1008.9 1009.8 0.0
29/05:30pm 10.6 3.0 3.9 63 3.1 NNW 33 56 18 30 1007.4 - 0.0
29/05:00pm 10.8 4.1 3.8 62 3.2 NNW 28 61 15 33 1007.7 1008.6 0.0
29/04:45pm 10.7 4.0 3.7 62 3.2 NNW 28 50 15 27 1007.5 - 0.0
29/04:30pm 10.8 5.6 3.6 61 3.3 N 20 46 11 25 1007.3 - 0.0
29/04:00pm 11.0 5.4 3.3 59 3.5 NNW 22 50 12 27 1008.2 1009.2 0.0
29/03:30pm 11.1 5.0 2.7 56 3.8 NNW 24 35 13 19 1007.9 - 0.0
29/03:26pm 11.2 4.3 2.8 56 3.8 NW 28 48 15 26 1007.8 - 0.0
29/03:00pm 11.2 6.0 2.5 55 3.9 N 19 22 10 12 1008.1 1009.1 0.0
29/02:54pm 11.3 3.7 2.9 56 3.8 NW 32 52 17 28 1007.9 - 0.0
29/02:30pm 10.8 4.1 1.6 53 4.1 NNW 26 44 14 24 1008.0 - 0.0
29/02:23pm 10.6 3.6 2.2 56 3.7 NNW 28 46 15 25 1008.3 - 0.0
29/02:00pm 11.4 5.2 2.4 54 4.1 NW 24 44 13 24 1008.9 1009.8 0.0
29/01:31pm 11.3 4.1 1.0 49 4.5 NW 28 56 15 30 1008.5 - 0.0
29/01:30pm 11.4 5.0 1.1 49 4.5 NW 24 50 13 27 1008.9 - 0.0
29/01:00pm 11.5 4.4 1.5 50 4.4 NW 28 50 15 27 1009.3 1010.3 0.0
29/12:48pm 11.6 3.5 1.3 49 4.5 NW 33 52 18 28 1008.9 - 0.0
29/12:30pm 12.2 5.0 0.6 45 5.1 NW 28 43 15 23 1008.8 - 0.0
29/12:00pm 11.2 3.9 0.0 46 4.8 NNW 28 44 15 24 1008.5 1009.4 0.0
29/11:30am 12.1 3.4 -0.7 41 5.4 NNW 35 65 19 35 1010.1 - 0.0
29/11:00am 12.0 3.1 -1.9 38 5.7 NNW 35 65 19 35 1010.1 1011.0 0.0
29/10:38am 12.4 4.8 -1.9 37 5.9 NNW 28 48 15 26 1010.2 - 0.0
29/10:30am 12.3 4.2 -3.1 34 6.2 NNW 30 44 16 24 1010.1 - 0.0
29/10:00am 11.7 2.8 -1.8 39 5.6 NW 35 59 19 32 1010.7 1011.7 0.0
29/09:44am 11.6 2.3 -2.2 38 5.6 NNW 37 72 20 39 1010.2 - 0.0
29/09:30am 11.6 3.7 -1.2 41 5.3 NW 30 48 16 26 1010.4 - 0.0
29/09:00am 11.5 3.0 0.9 48 4.6 NW 35 54 19 29 1010.1 1011.0 0.0
29/08:30am 11.3 2.1 1.3 50 4.4 NW 39 59 21 32 1010.1 - 0.0
29/08:00am 11.2 0.4 1.7 52 4.2 NW 48 78 26 42 1010.2 1011.1 0.0
29/07:58am 11.1 -0.5 1.6 52 4.2 NW 52 78 28 42 1009.6 - 0.0
29/07:32am 10.8 3.7 1.6 53 4.1 NNW 28 50 15 27 1010.5 - 0.0
29/07:30am 10.8 4.5 1.6 53 4.1 NNW 24 50 13 27 1010.6 - 0.0
29/07:03am 10.6 3.5 1.2 52 4.1 NNW 28 65 15 35 1010.2 - 0.0
29/07:00am 10.5 3.7 0.8 51 4.2 NNW 26 54 14 29 1010.4 1011.4 0.0
29/06:49am 10.8 2.7 0.8 50 4.3 N 33 67 18 36 1009.7 - 0.0
29/06:33am 10.4 3.3 1.5 54 3.9 N 28 46 15 25 1010.1 - 0.0
29/06:30am 10.4 3.3 1.5 54 3.9 N 28 41 15 22 1010.2 - 0.0
29/06:00am 10.1 3.7 1.2 54 3.9 N 24 41 13 22 1010.5 1011.5 0.0
29/05:30am 10.4 5.0 1.0 52 4.1 NNW 19 41 10 22 1010.4 - 0.0
29/05:10am 10.6 3.5 1.4 53 4.0 N 28 50 15 27 1009.8 - 0.0
29/05:00am 10.2 3.5 1.6 55 3.8 N 26 43 14 23 1010.3 1011.2 0.0
29/04:30am 10.4 4.5 1.8 55 3.8 NNE 22 28 12 15 1010.4 - 0.0
29/04:00am 10.3 5.0 1.7 55 3.8 NNW 19 37 10 20 1010.6 1011.6 0.0
29/03:30am 11.0 3.9 1.5 52 4.2 NNW 28 52 15 28 1010.9 - 0.0
29/03:06am 10.8 3.8 2.1 55 3.9 NNW 28 57 15 31 1010.6 - 0.0
29/03:00am 10.7 4.8 2.0 55 3.9 NNW 22 41 12 22 1010.8 1011.8 0.0
29/02:30am 10.7 3.3 2.0 55 3.9 NNW 30 50 16 27 1011.0 - 0.0
29/02:00am 10.8 3.4 1.9 54 4.0 NW 30 59 16 32 1011.4 1012.3 0.0
29/01:30am 10.7 3.6 1.5 53 4.0 NNW 28 48 15 26 1011.5 - 0.0
29/01:28am 10.7 3.7 2.0 55 3.9 NNW 28 48 15 26 1011.7 - 0.0
29/01:00am 10.6 4.3 1.7 54 3.9 NNW 24 43 13 23 1011.9 1012.9 0.0
29/12:37am 10.6 3.6 1.9 55 3.8 NNW 28 46 15 25 1012.1 - 0.0
29/12:30am 10.4 3.8 2.0 56 3.7 NNW 26 46 14 25 1012.2 - 0.0
29/12:01am 10.5 3.5 1.9 55 3.8 NNW 28 46 15 25 1012.1 - 0.0
29/12:00am 10.5 3.1 1.6 54 3.9 NNW 30 46 16 25 1012.0 1013.0 0.0
 
Date/Time
EST
Temp
°C
App
Temp
°C
Dew
Point
Rel
Hum
%
Delta-T
°C
Wind Press
QNH
hPa
Press
MSL
hPa
Rain
since 9 am
mm
Dir
 
Spd
km/h
Gust
km/h
Spd
kts
Gust
kts
28/11:33pm 10.4 3.4 1.8 55 3.8 NNW 28 57 15 31 1012.0 - 0.0
28/11:30pm 10.4 4.1 1.5 54 3.9 NNW 24 57 13 31 1012.1 - 0.0
28/11:12pm 10.5 3.4 1.3 53 4.0 NNW 28 56 15 30 1012.5 - 0.0
28/11:00pm 10.5 4.6 1.6 54 3.9 NNW 22 41 12 22 1012.9 1013.9 0.0
28/10:30pm 10.0 4.7 1.9 57 3.6 NNW 19 33 10 18 1013.6 - 0.0
28/10:00pm 10.2 4.9 1.8 56 3.7 NNW 19 28 10 15 1013.7 1014.7 0.0
28/09:30pm 10.3 4.4 1.4 54 3.9 NNW 22 39 12 21 1013.6 - 0.0
28/09:00pm 9.9 3.2 1.5 56 3.7 NNW 26 37 14 20 1013.4 1014.4 0.0
28/08:30pm 9.9 3.6 1.5 56 3.7 NNW 24 48 13 26 1014.0 - 0.0
28/08:00pm 10.1 3.7 1.0 53 3.9 NNW 24 35 13 19 1014.0 1015.1 0.0
28/07:30pm 9.9 3.9 1.3 55 3.7 NW 22 46 12 25 1014.2 - 0.0
28/07:00pm 10.2 4.6 1.1 53 3.9 NNW 20 41 11 22 1014.2 1015.2 0.0
28/06:30pm 10.0 4.4 1.1 54 3.8 NNW 20 35 11 19 1013.7 - 0.0
28/06:00pm 9.5 4.1 1.4 57 3.5 N 19 43 10 23 1013.6 1014.6 0.0
28/05:30pm 9.8 5.2 1.5 56 3.6 N 15 28 8 15 1013.8 - 0.0
28/05:00pm 10.2 6.0 1.8 56 3.7 N 13 37 7 20 1014.0 1015.1 0.0
28/04:30pm 10.6 5.7 2.2 56 3.7 N 17 28 9 15 1014.3 - 0.0
28/04:00pm 11.6 7.6 2.9 55 4.0 N 13 22 7 12 1014.5 1015.5 0.0
28/03:30pm 11.8 7.0 2.5 53 4.2 N 17 26 9 14 1014.3 - 0.0
28/03:00pm 12.0 6.7 1.9 50 4.5 NNE 19 30 10 16 1014.6 1015.6 0.0
28/02:30pm 12.4 8.3 2.0 49 4.7 NNW 13 28 7 15 1014.7 - 0.0
28/02:00pm 12.2 5.7 2.9 53 4.3 N 26 35 14 19 1014.6 1015.6 0.0
28/01:30pm 12.5 7.1 2.4 50 4.6 N 20 35 11 19 1014.9 - 0.0
28/01:00pm 12.7 8.4 1.1 45 5.1 NNW 13 22 7 12 1015.3 1016.4 0.0
28/12:30pm 13.0 9.0 2.8 50 4.7 N 13 24 7 13 1016.1 - 0.0
28/12:00pm 12.5 7.9 1.5 47 4.9 N 15 26 8 14 1016.4 1017.5 0.0
28/11:30am 11.9 7.5 2.6 53 4.2 NNW 15 26 8 14 1017.0 - 0.0
28/11:00am 11.4 6.0 2.4 54 4.1 NNW 20 32 11 17 1017.4 1018.5 0.0
28/10:30am 10.6 4.1 2.7 58 3.6 NW 26 37 14 20 1017.7 - 0.0
28/10:00am 10.0 3.1 2.4 59 3.4 NW 28 44 15 24 1017.6 1018.7 0.0
28/09:30am 9.8 4.3 1.9 58 3.5 NW 20 35 11 19 1017.9 - 0.0
28/09:00am 9.5 4.9 1.4 57 3.5 NNW 15 22 8 12 1018.0 1019.1 0.0
28/08:30am 8.5 4.3 1.6 62 3.0 N 13 22 7 12 1017.8 - 0.0
28/08:00am 7.3 2.3 1.4 66 2.5 N 17 20 9 11 1017.9 1019.0 0.0
28/07:30am 6.3 0.9 1.0 69 2.2 NNE 19 22 10 12 1017.8 - 0.0
28/07:00am 6.4 0.9 0.9 68 2.3 NE 19 24 10 13 1017.8 1018.9 0.0
28/06:30am 5.6 2.0 0.4 69 2.1 NNE 9 19 5 10 1017.9 - 0.0
28/06:00am 6.0 1.6 0.6 68 2.2 N 13 20 7 11 1017.9 1019.0 0.0
28/05:30am 5.0 1.0 0.2 71 1.9 N 11 15 6 8 1017.8 - 0.0
28/05:00am 4.3 -0.1 0.1 74 1.7 NNE 13 17 7 9 1017.8 1018.9 0.0
28/04:30am 4.8 0.3 0.0 71 1.9 N 13 17 7 9 1018.0 - 0.0
28/04:00am 4.3 -0.1 0.3 75 1.6 NNE 13 17 7 9 1018.0 1019.1 0.0
28/03:30am 3.9 0.2 0.1 76 1.5 NE 9 13 5 7 1017.9 - 0.0
28/03:00am 4.3 -0.1 0.1 74 1.7 NE 13 20 7 11 1017.7 1018.8 0.0
28/02:30am 5.4 0.3 0.6 71 2.0 NNE 17 26 9 14 1018.1 - 0.0
28/02:00am 6.3 0.5 0.0 64 2.6 N 20 30 11 16 1018.6 1019.7 0.0
28/01:30am 4.6 -1.2 -0.2 71 1.9 NNE 20 39 11 21 1019.0 - 0.0
28/01:00am 3.7 0.9 -0.5 74 1.6 WNW 4 7 2 4 1019.6 1020.8 0.0
28/12:30am 3.6 0.4 -0.6 74 1.6 ENE 6 9 3 5 1019.9 - 0.0
28/12:00am 4.6 2.2 0.0 72 1.8 ESE 2 7 1 4 1020.0 1021.1 0.0
 
Date/Time
EST
Temp
°C
App
Temp
°C
Dew
Point
Rel
Hum
%
Delta-T
°C
Wind Press
QNH
hPa
Press
MSL
hPa
Rain
since 9 am
mm
Dir
 
Spd
km/h
Gust
km/h
Spd
kts
Gust
kts
27/11:30pm 5.5 1.8 0.1 68 2.2 N 9 19 5 10 1019.9 - 0.0
27/11:00pm 6.0 0.9 0.8 69 2.1 N 17 22 9 12 1019.9 1021.0 0.0
27/10:30pm 6.4 2.9 1.1 69 2.2 N 9 13 5 7 1020.1 - 0.0
27/10:00pm 6.9 1.5 1.4 68 2.3 NNE 19 22 10 12 1019.6 1020.8 0.0
27/09:30pm 6.8 2.9 1.3 68 2.3 N 11 15 6 8 1020.4 - 0.0
27/09:00pm 5.1 2.0 1.2 76 1.6 N 7 9 4 5 1020.8 1022.0 0.0
27/08:30pm 5.6 3.9 1.9 77 1.6 CALM 0 0 0 0 1021.1 - 0.0
27/08:00pm 6.6 2.8 1.7 71 2.1 N 11 15 6 8 1020.6 1021.8 0.0
27/07:30pm 6.5 4.4 1.8 72 2.0 SE 2 7 1 4 1020.8 - 0.0
27/07:00pm 7.4 5.0 1.9 68 2.4 N 4 9 2 5 1020.6 1021.8 0.0
27/06:30pm 6.7 3.7 2.0 72 2.0 W 7 13 4 7 1020.3 - 0.0
27/06:00pm 8.4 5.0 1.6 62 2.9 NW 9 15 5 8 1019.9 1021.0 0.0
27/05:30pm 9.0 4.5 1.9 61 3.1 NW 15 20 8 11 1019.7 - 0.0
27/05:00pm 9.4 5.7 2.5 62 3.1 NNW 11 15 6 8 1019.6 1020.8 0.0
27/04:30pm 10.5 6.5 2.8 59 3.5 NNW 13 17 7 9 1019.7 - 0.0
27/04:00pm 11.0 7.2 4.0 62 3.2 WNW 13 19 7 10 1020.1 1021.2 0.0
27/03:30pm 11.7 7.9 4.0 59 3.6 W 13 17 7 9 1020.1 - 0.0
27/03:00pm 12.0 8.1 3.5 56 3.9 W 13 22 7 12 1020.2 1021.3 0.0
27/02:30pm 12.7 8.8 3.6 54 4.3 W 13 19 7 10 1020.0 - 0.0
27/02:00pm 12.5 8.1 2.9 52 4.4 W 15 22 8 12 1020.2 1021.3 0.0
27/01:30pm 12.4 8.7 2.6 51 4.5 W 11 19 6 10 1020.6 - 0.0
27/01:00pm 12.0 7.5 4.0 58 3.7 W 17 24 9 13 1021.0 1022.2 0.0
27/12:30pm 11.7 7.8 3.2 56 3.9 WSW 13 19 7 10 1021.7 - 0.0
27/12:00pm 11.4 7.3 4.2 61 3.4 WSW 15 24 8 13 1022.3 1023.5 0.0
27/11:30am 10.6 6.3 3.4 61 3.3 SW 15 20 8 11 1022.9 - 0.0
27/11:00am 10.2 6.7 3.5 63 3.0 W 11 15 6 8 1023.1 1024.3 0.0
27/10:30am 9.7 5.7 3.0 63 3.0 W 13 19 7 10 1023.4 - 0.0
27/10:00am 9.5 7.4 3.9 68 2.6 W 4 7 2 4 1023.6 1024.8 0.0
27/09:30am 8.9 6.7 5.1 77 1.8 E 6 9 3 5 1023.6 - 0.0
27/09:00am 7.8 5.8 6.1 89 0.8 ESE 6 9 3 5 1023.7 1024.9 0.2
27/08:30am 7.2 4.9 5.7 90 0.7 ESE 7 7 4 4 1023.6 - 0.2
27/08:00am 6.6 5.5 5.1 90 0.7 CALM 0 0 0 0 1023.5 1024.7 0.2
27/07:30am 6.7 5.6 5.0 89 0.8 CALM 0 0 0 0 1023.4 - 0.2
27/07:00am 6.7 4.2 5.0 89 0.8 WSW 7 9 4 5 1023.3 1024.5 0.2
27/06:30am 6.9 4.1 5.1 88 0.8 SW 9 13 5 7 1023.1 - 0.2
27/06:00am 6.9 4.1 5.1 88 0.8 WSW 9 15 5 8 1022.8 1024.0 0.2
27/05:30am 6.8 4.3 5.0 88 0.8 SW 7 11 4 6 1022.5 - 0.2
27/05:00am 6.5 3.7 5.0 90 0.7 WSW 9 9 5 5 1022.5 1023.7 0.2
27/04:30am 6.8 3.6 5.1 89 0.8 SW 11 17 6 9 1022.5 - 0.2
27/04:00am 6.5 3.3 5.3 92 0.6 WSW 11 17 6 9 1022.7 1023.8 0.2
27/03:30am 6.3 4.1 5.3 93 0.5 WSW 6 9 3 5 1022.5 - 0.2
27/03:00am 6.4 4.0 5.4 93 0.5 WSW 7 11 4 6 1022.5 1023.7 0.2
27/02:30am 6.6 4.2 5.4 92 0.6 SW 7 13 4 7 1022.7 - 0.2
27/02:00am 6.6 3.5 5.4 92 0.6 WSW 11 20 6 11 1022.9 1024.1 0.2
27/01:30am 6.2 3.9 5.6 96 0.3 SW 7 11 4 6 1023.0 - 0.2
27/01:00am 6.4 4.2 5.5 94 0.4 SSW 6 7 3 4 1022.9 1024.1 0.2

Other Formats:

Comma delimited format used in spreadsheet applications
http://www.bom.gov.au/fwo/IDV60801/IDV60801.94913.axf

JavaScript Object Notation format (JSON) in row-major order
http://www.bom.gov.au/fwo/IDV60801/IDV60801.94913.json